Aeroporto :
LOGIN :

Iscrizione | Disclaimer

   EN    FR    IT 

 










Sommario :    VFR   VFR Marginale   IFR   IFR Intensivo   IFR Molto Intensivo
Visibilità : 
Base nubi : 
>= 8 km
>= 3000ft
5 / 8 km
1000 / 3000 ft
1500m / 5 km
500 / 1000 ft
800 / 1500m
200 / 500 ft
< 800m
< 200 ft
Simboli :   Temporali  Nebbia  Neve Forte  Precipitazioni Forti  Vento > 20 kt
SIGMETs :   Varie  Temporali  Ghiacco  Turbolenza  Onda orograficha  Ceneri Vulcaniche






- Altitudine del aeroporto : 412 ft
- Codice IATA : ORE


LFOJ - Orleans

ULTIMO METAR :
  • 162130Z AUTO 09004KT CAVOK 19/17 Q1009 NOSIG

METARs OBSOLETI :
  • 162100Z AUTO 06003KT CAVOK 20/18 Q1009 NOSIG
  • 162030Z AUTO 08004KT 020V110 CAVOK 20/18 Q1009 NOSIG
  • 162000Z AUTO 07003KT CAVOK 20/18 Q1009 NOSIG
  • 161930Z AUTO 10003KT CAVOK 20/18 Q1008 NOSIG
  • 161900Z AUTO VRB03KT CAVOK 21/18 Q1008 NOSIG

TAF TAF LFOJ
Valido dal 16 a 21 ore il 17 a 21 ore UTC


162000Z 1621/1721 18005KT CAVOK TX26/1715Z TN16/1704Z
PROB30
TEMPO 1703/1709 4000 SHRA SCT040TCU
TEMPO 1712/1715 4000 SHRA SCT040TCU
PROB30
TEMPO 1712/1714 22015G25KT 2000 TSRA SCT040CB



MetMap, La meteo Aeronautica in un colpo d'occhio ! - Copyright ORBIFLY Dicembre 2007 - Disclaimer

ORBIFLY MET'MAP TEAM :

Programmazione e sviluppo : Alexandra Zaïnal
Concezione : Baudouin d'Aumeries
Supporto tecnico e logistico : Manuel Goepfert
Aiuto : Marc-Olivier Méhu
Aiuto per la traduzione : Arnaldo La Scala




FONTI E CREDITI :

   NOAA